Terminal Aerodrome Forecast
Issued by NWS Cleveland, OH

Home | Current Version | Previous Version | Graphics & Text | Print | Product List | Glossary On
Versions: 1 2 3 4 5 6 7 8 9 10 11 12 13 14 15 16 17 18 19 20 21
000
FTUS41 KCLE 132300 AAA
TAFCAK
TAF AMD
KCAK 132321Z 1323/1418 01005KT P6SM SCT045
     FM140300 VRB03KT P6SM FEW045
     FM141000 00000KT 3SM BR FEW045
     FM141400 15005KT P6SM SCT040=

USA.gov is the U.S. government's official web portal to all federal, state and local government web resources and services.